sensor_id;sensor_type;location;lat;lon;timestamp;pressure;altitude;pressure_sealevel;temperature;humidity
35806;BME280;21925;44.608;11.580;2022-12-20T00:01:13;103253.09;;;12.40;83.49
35806;BME280;21925;44.608;11.580;2022-12-20T00:03:40;103258.06;;;12.56;83.74
35806;BME280;21925;44.608;11.580;2022-12-20T00:06:06;103241.81;;;12.41;83.73
35806;BME280;21925;44.608;11.580;2022-12-20T00:08:33;103253.59;;;12.60;83.54
35806;BME280;21925;44.608;11.580;2022-12-20T00:11:01;103240.84;;;12.32;83.55
35806;BME280;21925;44.608;11.580;2022-12-20T00:13:27;103249.81;;;12.56;83.96
35806;BME280;21925;44.608;11.580;2022-12-20T00:16:07;103262.31;;;12.67;83.64
35806;BME280;21925;44.608;11.580;2022-12-20T00:18:35;103260.91;;;12.51;83.52
35806;BME280;21925;44.608;11.580;2022-12-20T00:21:02;103249.63;;;12.34;85.74
35806;BME280;21925;44.608;11.580;2022-12-20T00:23:28;103240.69;;;12.24;86.47
35806;BME280;21925;44.608;11.580;2022-12-20T00:26:15;103234.00;;;12.30;85.77
35806;BME280;21925;44.608;11.580;2022-12-20T00:28:43;103235.13;;;12.29;85.63
35806;BME280;21925;44.608;11.580;2022-12-20T00:31:11;103233.63;;;12.36;85.30
35806;BME280;21925;44.608;11.580;2022-12-20T00:33:38;103245.47;;;12.37;85.04
35806;BME280;21925;44.608;11.580;2022-12-20T00:36:05;103218.63;;;12.29;85.00
35806;BME280;21925;44.608;11.580;2022-12-20T00:38:31;103240.06;;;12.45;84.16
35806;BME280;21925;44.608;11.580;2022-12-20T00:40:59;103227.09;;;12.32;84.58
35806;BME280;21925;44.608;11.580;2022-12-20T00:43:26;103244.13;;;12.34;85.48
35806;BME280;21925;44.608;11.580;2022-12-20T00:45:51;103251.16;;;12.03;86.20
35806;BME280;21925;44.608;11.580;2022-12-20T00:48:17;103226.41;;;11.85;87.03
35806;BME280;21925;44.608;11.580;2022-12-20T00:50:43;103225.16;;;12.14;86.52
35806;BME280;21925;44.608;11.580;2022-12-20T00:53:08;103229.56;;;12.15;85.52
35806;BME280;21925;44.608;11.580;2022-12-20T00:55:43;103232.00;;;12.35;85.31
35806;BME280;21925;44.608;11.580;2022-12-20T00:58:09;103245.22;;;12.52;84.60
35806;BME280;21925;44.608;11.580;2022-12-20T01:00:36;103237.69;;;12.57;83.51
35806;BME280;21925;44.608;11.580;2022-12-20T01:03:02;103213.13;;;12.29;83.39
35806;BME280;21925;44.608;11.580;2022-12-20T01:05:27;103246.84;;;11.97;87.14
35806;BME280;21925;44.608;11.580;2022-12-20T01:07:53;103196.78;;;11.82;88.06
35806;BME280;21925;44.608;11.580;2022-12-20T01:10:19;103251.84;;;11.95;90.05
35806;BME280;21925;44.608;11.580;2022-12-20T01:12:44;103244.19;;;12.29;88.58
35806;BME280;21925;44.608;11.580;2022-12-20T01:15:11;103220.03;;;12.26;86.20
35806;BME280;21925;44.608;11.580;2022-12-20T01:17:37;103246.56;;;12.36;85.77
35806;BME280;21925;44.608;11.580;2022-12-20T01:20:04;103251.13;;;11.15;92.49
35806;BME280;21925;44.608;11.580;2022-12-20T01:22:30;103250.81;;;11.92;91.45
35806;BME280;21925;44.608;11.580;2022-12-20T01:24:55;103238.50;;;11.66;92.31
35806;BME280;21925;44.608;11.580;2022-12-20T01:27:21;103245.31;;;11.68;92.03
35806;BME280;21925;44.608;11.580;2022-12-20T01:29:47;103235.50;;;12.22;89.63
35806;BME280;21925;44.608;11.580;2022-12-20T01:32:12;103232.22;;;12.20;88.21
35806;BME280;21925;44.608;11.580;2022-12-20T01:34:38;103229.69;;;12.24;86.25
35806;BME280;21925;44.608;11.580;2022-12-20T01:37:04;103214.03;;;12.06;86.98
35806;BME280;21925;44.608;11.580;2022-12-20T01:39:29;103234.88;;;11.89;89.56
35806;BME280;21925;44.608;11.580;2022-12-20T01:41:55;103231.72;;;12.18;88.66
35806;BME280;21925;44.608;11.580;2022-12-20T01:46:48;103226.25;;;12.32;87.07
35806;BME280;21925;44.608;11.580;2022-12-20T01:49:29;103232.34;;;12.47;86.24
35806;BME280;21925;44.608;11.580;2022-12-20T01:54:48;103226.38;;;12.59;85.21
35806;BME280;21925;44.608;11.580;2022-12-20T01:57:30;103207.06;;;12.45;86.17
35806;BME280;21925;44.608;11.580;2022-12-20T01:59:57;103208.00;;;12.54;85.22
35806;BME280;21925;44.608;11.580;2022-12-20T02:02:27;103206.78;;;12.47;84.77
35806;BME280;21925;44.608;11.580;2022-12-20T02:04:52;103176.63;;;12.23;85.58
35806;BME280;21925;44.608;11.580;2022-12-20T02:07:24;103188.88;;;12.31;85.50
35806;BME280;21925;44.608;11.580;2022-12-20T02:09:52;103171.84;;;12.29;85.97
35806;BME280;21925;44.608;11.580;2022-12-20T02:12:20;103188.91;;;12.44;85.62
35806;BME280;21925;44.608;11.580;2022-12-20T02:15:04;103189.38;;;12.51;85.18
35806;BME280;21925;44.608;11.580;2022-12-20T02:26:29;103178.34;;;12.51;85.90
35806;BME280;21925;44.608;11.580;2022-12-20T02:32:03;103177.63;;;12.46;86.29
35806;BME280;21925;44.608;11.580;2022-12-20T02:34:34;103162.97;;;12.50;86.11
35806;BME280;21925;44.608;11.580;2022-12-20T02:37:01;103170.69;;;12.48;85.27
35806;BME280;21925;44.608;11.580;2022-12-20T02:39:28;103174.41;;;11.89;87.21
35806;BME280;21925;44.608;11.580;2022-12-20T02:42:00;103148.19;;;11.96;88.47
35806;BME280;21925;44.608;11.580;2022-12-20T02:44:29;103173.91;;;11.87;89.31
35806;BME280;21925;44.608;11.580;2022-12-20T02:47:23;103164.31;;;12.02;89.45
35806;BME280;21925;44.608;11.580;2022-12-20T02:49:52;103169.41;;;12.27;87.69
35806;BME280;21925;44.608;11.580;2022-12-20T02:52:21;103155.28;;;12.15;86.69
35806;BME280;21925;44.608;11.580;2022-12-20T02:54:54;103156.13;;;11.97;89.27
35806;BME280;21925;44.608;11.580;2022-12-20T03:00:07;103156.13;;;12.48;86.49
35806;BME280;21925;44.608;11.580;2022-12-20T03:02:35;103144.47;;;12.37;85.78
35806;BME280;21925;44.608;11.580;2022-12-20T03:05:22;103146.63;;;12.40;85.84
35806;BME280;21925;44.608;11.580;2022-12-20T03:07:50;103126.09;;;12.19;86.79
35806;BME280;21925;44.608;11.580;2022-12-20T03:10:19;103156.56;;;12.04;89.38
35806;BME280;21925;44.608;11.580;2022-12-20T03:12:45;103155.19;;;12.20;88.66
35806;BME280;21925;44.608;11.580;2022-12-20T03:15:11;103157.91;;;12.07;90.00
35806;BME280;21925;44.608;11.580;2022-12-20T03:17:36;103133.47;;;11.69;90.77
35806;BME280;21925;44.608;11.580;2022-12-20T03:20:04;103139.91;;;11.59;92.51
35806;BME280;21925;44.608;11.580;2022-12-20T03:22:31;103153.16;;;11.76;94.62
35806;BME280;21925;44.608;11.580;2022-12-20T03:24:58;103143.88;;;11.90;91.98
35806;BME280;21925;44.608;11.580;2022-12-20T03:27:25;103121.59;;;11.92;90.52
35806;BME280;21925;44.608;11.580;2022-12-20T03:29:53;103142.34;;;12.16;89.57
35806;BME280;21925;44.608;11.580;2022-12-20T03:32:19;103141.97;;;12.22;88.77
35806;BME280;21925;44.608;11.580;2022-12-20T03:34:45;103134.88;;;12.35;88.09
35806;BME280;21925;44.608;11.580;2022-12-20T03:37:12;103131.31;;;12.34;87.38
35806;BME280;21925;44.608;11.580;2022-12-20T03:39:37;103128.47;;;12.39;86.70
35806;BME280;21925;44.608;11.580;2022-12-20T03:42:05;103130.84;;;12.14;86.40
35806;BME280;21925;44.608;11.580;2022-12-20T03:44:30;103125.06;;;11.97;87.97
35806;BME280;21925;44.608;11.580;2022-12-20T03:46:56;103126.13;;;11.83;90.35
35806;BME280;21925;44.608;11.580;2022-12-20T03:49:22;103122.38;;;12.10;88.59
35806;BME280;21925;44.608;11.580;2022-12-20T03:51:50;103125.81;;;11.66;91.16
35806;BME280;21925;44.608;11.580;2022-12-20T03:54:16;103135.31;;;11.92;92.04
35806;BME280;21925;44.608;11.580;2022-12-20T03:57:01;103151.22;;;11.58;93.13
35806;BME280;21925;44.608;11.580;2022-12-20T03:59:27;103135.47;;;11.82;93.36
35806;BME280;21925;44.608;11.580;2022-12-20T04:01:54;103134.06;;;11.24;94.52
35806;BME280;21925;44.608;11.580;2022-12-20T04:04:19;103146.03;;;11.75;94.95
35806;BME280;21925;44.608;11.580;2022-12-20T04:06:45;103135.09;;;12.06;91.39
35806;BME280;21925;44.608;11.580;2022-12-20T04:09:11;103154.44;;;12.01;90.71
35806;BME280;21925;44.608;11.580;2022-12-20T04:11:42;103122.59;;;12.14;89.15
35806;BME280;21925;44.608;11.580;2022-12-20T04:14:11;103124.59;;;12.08;89.59
35806;BME280;21925;44.608;11.580;2022-12-20T04:16:37;103114.69;;;12.26;88.28
35806;BME280;21925;44.608;11.580;2022-12-20T04:19:04;103123.13;;;12.29;88.47
35806;BME280;21925;44.608;11.580;2022-12-20T04:21:35;103102.03;;;12.11;87.57
35806;BME280;21925;44.608;11.580;2022-12-20T04:24:03;103119.31;;;12.44;86.78
35806;BME280;21925;44.608;11.580;2022-12-20T04:26:43;103109.03;;;12.49;86.60
35806;BME280;21925;44.608;11.580;2022-12-20T04:29:09;103110.84;;;12.40;86.80
35806;BME280;21925;44.608;11.580;2022-12-20T04:31:36;103099.25;;;12.43;85.81
35806;BME280;21925;44.608;11.580;2022-12-20T04:34:01;103123.94;;;12.62;85.33
35806;BME280;21925;44.608;11.580;2022-12-20T04:36:29;103112.63;;;12.18;87.27
35806;BME280;21925;44.608;11.580;2022-12-20T04:38:57;103118.06;;;12.04;90.07
35806;BME280;21925;44.608;11.580;2022-12-20T04:41:23;103114.44;;;11.91;90.73
35806;BME280;21925;44.608;11.580;2022-12-20T04:43:57;103118.50;;;12.43;88.22
35806;BME280;21925;44.608;11.580;2022-12-20T04:46:30;103124.78;;;12.30;87.90
35806;BME280;21925;44.608;11.580;2022-12-20T04:48:58;103114.75;;;12.53;86.92
35806;BME280;21925;44.608;11.580;2022-12-20T04:51:24;103116.91;;;12.56;86.08
35806;BME280;21925;44.608;11.580;2022-12-20T04:53:50;103108.72;;;12.51;85.86
35806;BME280;21925;44.608;11.580;2022-12-20T04:56:34;103111.69;;;12.54;86.46
35806;BME280;21925;44.608;11.580;2022-12-20T04:59:07;103107.31;;;12.53;86.90
35806;BME280;21925;44.608;11.580;2022-12-20T05:01:33;103108.41;;;12.52;86.01
35806;BME280;21925;44.608;11.580;2022-12-20T05:03:59;103086.19;;;12.35;85.81
35806;BME280;21925;44.608;11.580;2022-12-20T05:06:28;103089.63;;;12.27;87.38
35806;BME280;21925;44.608;11.580;2022-12-20T05:08:54;103088.09;;;12.35;86.28
35806;BME280;21925;44.608;11.580;2022-12-20T05:11:20;103098.69;;;11.96;88.91
35806;BME280;21925;44.608;11.580;2022-12-20T05:13:46;103111.13;;;12.25;88.20
35806;BME280;21925;44.608;11.580;2022-12-20T05:16:14;103087.69;;;11.41;93.83
35806;BME280;21925;44.608;11.580;2022-12-20T05:18:41;103112.00;;;11.52;96.01
35806;BME280;21925;44.608;11.580;2022-12-20T05:21:07;103101.53;;;11.73;95.27
35806;BME280;21925;44.608;11.580;2022-12-20T05:23:52;103091.44;;;12.18;91.12
35806;BME280;21925;44.608;11.580;2022-12-20T05:26:56;103088.72;;;12.00;92.51
35806;BME280;21925;44.608;11.580;2022-12-20T05:29:22;103088.00;;;12.26;90.37
35806;BME280;21925;44.608;11.580;2022-12-20T05:31:48;103098.34;;;12.16;90.44
35806;BME280;21925;44.608;11.580;2022-12-20T05:34:15;103088.41;;;12.33;89.59
35806;BME280;21925;44.608;11.580;2022-12-20T05:36:45;103104.97;;;12.47;88.11
35806;BME280;21925;44.608;11.580;2022-12-20T05:39:11;103088.16;;;12.16;88.48
35806;BME280;21925;44.608;11.580;2022-12-20T05:41:39;103091.09;;;12.06;91.32
35806;BME280;21925;44.608;11.580;2022-12-20T05:44:06;103083.63;;;11.93;90.27
35806;BME280;21925;44.608;11.580;2022-12-20T05:46:35;103098.34;;;12.16;91.84
35806;BME280;21925;44.608;11.580;2022-12-20T05:49:04;103088.84;;;12.40;89.55
35806;BME280;21925;44.608;11.580;2022-12-20T05:51:30;103092.59;;;12.44;88.10
35806;BME280;21925;44.608;11.580;2022-12-20T05:54:07;103075.69;;;12.37;87.80
35806;BME280;21925;44.608;11.580;2022-12-20T05:56:43;103078.25;;;12.47;86.55
35806;BME280;21925;44.608;11.580;2022-12-20T05:59:10;103072.34;;;12.40;87.62
35806;BME280;21925;44.608;11.580;2022-12-20T06:01:36;103081.72;;;12.53;87.23
35806;BME280;21925;44.608;11.580;2022-12-20T06:04:02;103081.97;;;12.24;88.47
35806;BME280;21925;44.608;11.580;2022-12-20T06:06:28;103082.28;;;12.36;88.36
35806;BME280;21925;44.608;11.580;2022-12-20T06:08:55;103086.09;;;12.40;88.26
35806;BME280;21925;44.608;11.580;2022-12-20T06:11:37;103050.50;;;12.30;87.53
35806;BME280;21925;44.608;11.580;2022-12-20T06:14:06;103073.03;;;12.32;88.44
35806;BME280;21925;44.608;11.580;2022-12-20T06:16:34;103064.06;;;12.40;87.92
35806;BME280;21925;44.608;11.580;2022-12-20T06:19:02;103066.75;;;12.13;89.75
35806;BME280;21925;44.608;11.580;2022-12-20T06:21:28;103037.16;;;12.37;88.18
35806;BME280;21925;44.608;11.580;2022-12-20T06:23:54;103026.63;;;12.12;87.27
35806;BME280;21925;44.608;11.580;2022-12-20T06:26:20;103060.72;;;12.43;87.26
35806;BME280;21925;44.608;11.580;2022-12-20T06:28:49;103030.34;;;12.35;86.66
35806;BME280;21925;44.608;11.580;2022-12-20T06:31:36;103061.41;;;12.49;86.95
35806;BME280;21925;44.608;11.580;2022-12-20T06:34:02;103054.09;;;12.58;86.66
35806;BME280;21925;44.608;11.580;2022-12-20T06:36:32;103065.78;;;12.36;86.86
35806;BME280;21925;44.608;11.580;2022-12-20T06:38:58;103052.69;;;12.01;89.02
35806;BME280;21925;44.608;11.580;2022-12-20T06:41:24;103077.75;;;12.13;91.18
35806;BME280;21925;44.608;11.580;2022-12-20T06:43:51;103060.84;;;12.06;91.21
35806;BME280;21925;44.608;11.580;2022-12-20T06:46:17;103067.75;;;12.36;89.42
35806;BME280;21925;44.608;11.580;2022-12-20T06:48:44;103054.78;;;12.36;87.99
35806;BME280;21925;44.608;11.580;2022-12-20T06:51:10;103058.03;;;12.25;89.61
35806;BME280;21925;44.608;11.580;2022-12-20T06:53:36;103064.16;;;12.22;89.49
35806;BME280;21925;44.608;11.580;2022-12-20T06:56:02;103047.91;;;11.57;93.63
35806;BME280;21925;44.608;11.580;2022-12-20T06:58:30;103048.19;;;11.37;98.44
35806;BME280;21925;44.608;11.580;2022-12-20T07:00:55;103067.94;;;11.39;99.94
35806;BME280;21925;44.608;11.580;2022-12-20T07:03:21;103071.63;;;11.53;99.56
35806;BME280;21925;44.608;11.580;2022-12-20T07:05:51;103067.50;;;11.50;99.39
35806;BME280;21925;44.608;11.580;2022-12-20T07:08:18;103029.72;;;11.61;97.45
35806;BME280;21925;44.608;11.580;2022-12-20T07:10:44;103082.72;;;11.80;96.54
35806;BME280;21925;44.608;11.580;2022-12-20T07:13:10;103080.25;;;11.96;95.14
35806;BME280;21925;44.608;11.580;2022-12-20T07:15:36;103082.66;;;12.16;93.45
35806;BME280;21925;44.608;11.580;2022-12-20T07:18:01;103069.75;;;12.30;91.16
35806;BME280;21925;44.608;11.580;2022-12-20T07:20:28;103069.03;;;12.11;92.81
35806;BME280;21925;44.608;11.580;2022-12-20T07:22:54;103036.34;;;12.23;89.94
35806;BME280;21925;44.608;11.580;2022-12-20T07:25:20;103058.09;;;12.06;91.01
35806;BME280;21925;44.608;11.580;2022-12-20T07:27:47;103076.47;;;11.93;92.33
35806;BME280;21925;44.608;11.580;2022-12-20T07:30:15;103049.94;;;12.01;91.48
35806;BME280;21925;44.608;11.580;2022-12-20T07:32:41;103086.50;;;12.47;90.13
35806;BME280;21925;44.608;11.580;2022-12-20T07:35:08;103042.97;;;12.36;88.81
35806;BME280;21925;44.608;11.580;2022-12-20T07:37:35;103077.63;;;12.37;90.23
35806;BME280;21925;44.608;11.580;2022-12-20T07:40:02;103059.19;;;12.05;90.33
35806;BME280;21925;44.608;11.580;2022-12-20T07:42:29;103054.13;;;12.12;91.56
35806;BME280;21925;44.608;11.580;2022-12-20T07:44:54;103077.84;;;12.40;91.38
35806;BME280;21925;44.608;11.580;2022-12-20T07:47:21;103075.81;;;12.46;90.39
35806;BME280;21925;44.608;11.580;2022-12-20T07:49:47;103088.13;;;12.48;90.91
35806;BME280;21925;44.608;11.580;2022-12-20T07:52:16;103043.50;;;11.93;92.54
35806;BME280;21925;44.608;11.580;2022-12-20T07:54:49;103091.75;;;12.30;92.04
35806;BME280;21925;44.608;11.580;2022-12-20T07:57:24;103092.31;;;12.46;91.51
35806;BME280;21925;44.608;11.580;2022-12-20T07:59:53;103091.88;;;11.93;92.55
35806;BME280;21925;44.608;11.580;2022-12-20T08:02:34;103098.78;;;11.73;95.44
35806;BME280;21925;44.608;11.580;2022-12-20T08:05:02;103086.53;;;11.84;97.50
35806;BME280;21925;44.608;11.580;2022-12-20T08:07:30;103093.41;;;12.31;95.37
35806;BME280;21925;44.608;11.580;2022-12-20T08:09:56;103083.25;;;12.13;94.48
35806;BME280;21925;44.608;11.580;2022-12-20T08:12:22;103089.84;;;11.81;96.63
35806;BME280;21925;44.608;11.580;2022-12-20T08:14:50;103057.50;;;11.78;97.85
35806;BME280;21925;44.608;11.580;2022-12-20T08:17:21;103084.94;;;11.96;97.58
35806;BME280;21925;44.608;11.580;2022-12-20T08:19:47;103100.59;;;11.95;97.66
35806;BME280;21925;44.608;11.580;2022-12-20T08:22:16;103092.75;;;11.52;100.00
35806;BME280;21925;44.608;11.580;2022-12-20T08:24:44;103068.00;;;11.34;100.00
35806;BME280;21925;44.608;11.580;2022-12-20T08:27:10;103091.94;;;11.70;100.00
35806;BME280;21925;44.608;11.580;2022-12-20T08:29:36;103082.78;;;11.93;100.00
35806;BME280;21925;44.608;11.580;2022-12-20T08:32:02;103103.84;;;11.66;100.00
35806;BME280;21925;44.608;11.580;2022-12-20T08:34:30;103070.13;;;11.60;100.00
35806;BME280;21925;44.608;11.580;2022-12-20T08:36:56;103079.00;;;11.34;100.00
35806;BME280;21925;44.608;11.580;2022-12-20T08:39:21;103080.75;;;11.67;100.00
35806;BME280;21925;44.608;11.580;2022-12-20T08:41:47;103087.03;;;11.67;100.00
35806;BME280;21925;44.608;11.580;2022-12-20T08:44:13;103085.88;;;11.55;99.38
35806;BME280;21925;44.608;11.580;2022-12-20T08:46:39;103096.03;;;11.54;100.00
35806;BME280;21925;44.608;11.580;2022-12-20T08:49:05;103097.78;;;11.45;100.00
35806;BME280;21925;44.608;11.580;2022-12-20T08:51:31;103101.22;;;11.56;100.00
35806;BME280;21925;44.608;11.580;2022-12-20T08:53:57;103100.59;;;11.22;100.00
35806;BME280;21925;44.608;11.580;2022-12-20T08:56:23;103101.59;;;11.08;100.00
35806;BME280;21925;44.608;11.580;2022-12-20T08:58:48;103100.47;;;11.50;100.00
35806;BME280;21925;44.608;11.580;2022-12-20T09:01:16;103081.38;;;11.22;100.00
35806;BME280;21925;44.608;11.580;2022-12-20T09:03:43;103099.50;;;11.41;100.00
35806;BME280;21925;44.608;11.580;2022-12-20T09:06:15;103091.75;;;11.43;100.00
35806;BME280;21925;44.608;11.580;2022-12-20T09:08:42;103116.75;;;11.47;100.00
35806;BME280;21925;44.608;11.580;2022-12-20T09:11:20;103103.38;;;11.40;100.00
35806;BME280;21925;44.608;11.580;2022-12-20T09:13:48;103102.41;;;11.50;100.00
35806;BME280;21925;44.608;11.580;2022-12-20T09:16:16;103102.72;;;11.67;100.00
35806;BME280;21925;44.608;11.580;2022-12-20T09:18:42;103106.88;;;11.83;100.00
35806;BME280;21925;44.608;11.580;2022-12-20T09:21:09;103100.66;;;11.59;100.00
35806;BME280;21925;44.608;11.580;2022-12-20T09:23:36;103076.22;;;11.57;100.00
35806;BME280;21925;44.608;11.580;2022-12-20T09:26:08;103104.97;;;11.83;100.00
35806;BME280;21925;44.608;11.580;2022-12-20T09:28:37;103090.41;;;11.64;100.00
35806;BME280;21925;44.608;11.580;2022-12-20T09:31:05;103086.06;;;11.95;99.01
35806;BME280;21925;44.608;11.580;2022-12-20T09:33:32;103089.56;;;11.82;99.59
35806;BME280;21925;44.608;11.580;2022-12-20T09:35:58;103050.00;;;11.96;99.67
35806;BME280;21925;44.608;11.580;2022-12-20T09:38:25;103074.06;;;12.04;98.39
35806;BME280;21925;44.608;11.580;2022-12-20T09:40:59;103089.75;;;12.04;98.90
35806;BME280;21925;44.608;11.580;2022-12-20T09:43:27;103048.00;;;12.02;96.13
35806;BME280;21925;44.608;11.580;2022-12-20T09:45:55;103065.34;;;12.16;96.45
35806;BME280;21925;44.608;11.580;2022-12-20T09:48:24;103059.19;;;12.05;95.23
35806;BME280;21925;44.608;11.580;2022-12-20T09:56:06;103054.53;;;12.06;97.55
35806;BME280;21925;44.608;11.580;2022-12-20T09:58:45;103056.97;;;12.07;97.97
35806;BME280;21925;44.608;11.580;2022-12-20T10:01:23;103051.13;;;12.27;97.14
35806;BME280;21925;44.608;11.580;2022-12-20T10:03:50;103058.38;;;12.50;97.25
35806;BME280;21925;44.608;11.580;2022-12-20T10:06:39;103054.78;;;12.36;97.93
35806;BME280;21925;44.608;11.580;2022-12-20T10:12:14;103051.66;;;12.56;95.18
35806;BME280;21925;44.608;11.580;2022-12-20T10:26:03;103019.75;;;12.82;93.02
35806;BME280;21925;44.608;11.580;2022-12-20T10:28:34;102993.66;;;12.53;96.18
35806;BME280;21925;44.608;11.580;2022-12-20T10:31:03;103016.09;;;13.00;95.43
35806;BME280;21925;44.608;11.580;2022-12-20T10:33:30;103020.25;;;13.11;93.76
35806;BME280;21925;44.608;11.580;2022-12-20T10:36:25;103004.06;;;12.96;93.04
35806;BME280;21925;44.608;11.580;2022-12-20T10:38:56;103008.75;;;12.95;92.77
35806;BME280;21925;44.608;11.580;2022-12-20T10:41:33;103010.81;;;12.90;95.55
35806;BME280;21925;44.608;11.580;2022-12-20T10:44:23;103009.94;;;12.22;98.29
35806;BME280;21925;44.608;11.580;2022-12-20T10:46:55;103010.41;;;11.97;100.00
35806;BME280;21925;44.608;11.580;2022-12-20T10:49:32;103013.97;;;11.98;100.00
35806;BME280;21925;44.608;11.580;2022-12-20T10:52:10;102998.31;;;12.12;100.00
35806;BME280;21925;44.608;11.580;2022-12-20T10:54:42;103001.63;;;11.82;100.00
35806;BME280;21925;44.608;11.580;2022-12-20T11:00:04;102984.47;;;11.72;100.00
35806;BME280;21925;44.608;11.580;2022-12-20T11:02:35;102973.44;;;12.03;99.51
35806;BME280;21925;44.608;11.580;2022-12-20T11:10:36;102971.63;;;11.99;100.00
35806;BME280;21925;44.608;11.580;2022-12-20T11:13:02;102955.94;;;11.99;100.00
35806;BME280;21925;44.608;11.580;2022-12-20T11:15:31;102939.06;;;12.19;100.00
35806;BME280;21925;44.608;11.580;2022-12-20T11:18:14;102963.47;;;11.62;100.00
35806;BME280;21925;44.608;11.580;2022-12-20T11:23:47;102948.75;;;11.85;100.00
35806;BME280;21925;44.608;11.580;2022-12-20T11:39:56;102935.59;;;12.27;100.00
35806;BME280;21925;44.608;11.580;2022-12-20T11:42:36;102928.59;;;11.76;100.00
35806;BME280;21925;44.608;11.580;2022-12-20T11:45:12;102915.63;;;12.22;100.00
35806;BME280;21925;44.608;11.580;2022-12-20T11:48:34;102913.97;;;11.94;100.00
35806;BME280;21925;44.608;11.580;2022-12-20T11:51:14;102915.81;;;11.98;100.00
35806;BME280;21925;44.608;11.580;2022-12-20T11:53:59;102897.25;;;11.77;100.00
35806;BME280;21925;44.608;11.580;2022-12-20T11:56:34;102904.78;;;11.85;100.00
35806;BME280;21925;44.608;11.580;2022-12-20T12:02:07;102903.38;;;12.01;100.00
35806;BME280;21925;44.608;11.580;2022-12-20T12:05:14;102906.22;;;11.83;100.00
35806;BME280;21925;44.608;11.580;2022-12-20T12:07:46;102900.31;;;12.16;100.00
35806;BME280;21925;44.608;11.580;2022-12-20T12:10:31;102895.00;;;11.79;100.00
35806;BME280;21925;44.608;11.580;2022-12-20T12:13:03;102898.31;;;11.94;100.00
35806;BME280;21925;44.608;11.580;2022-12-20T12:15:47;102895.81;;;11.80;100.00
35806;BME280;21925;44.608;11.580;2022-12-20T12:18:19;102892.81;;;11.94;100.00
35806;BME280;21925;44.608;11.580;2022-12-20T12:26:35;102884.22;;;11.83;100.00
35806;BME280;21925;44.608;11.580;2022-12-20T12:29:11;102881.47;;;11.83;100.00
35806;BME280;21925;44.608;11.580;2022-12-20T12:45:27;102799.91;;;11.65;100.00
35806;BME280;21925;44.608;11.580;2022-12-20T12:48:04;102866.09;;;11.95;100.00
35806;BME280;21925;44.608;11.580;2022-12-20T12:50:35;102847.25;;;11.89;100.00
35806;BME280;21925;44.608;11.580;2022-12-20T12:55:41;102861.00;;;12.15;100.00
35806;BME280;21925;44.608;11.580;2022-12-20T13:03:43;102849.16;;;12.28;98.61
35806;BME280;21925;44.608;11.580;2022-12-20T13:11:36;102832.19;;;12.26;99.91
35806;BME280;21925;44.608;11.580;2022-12-20T13:16:48;102811.81;;;12.27;97.89
35806;BME280;21925;44.608;11.580;2022-12-20T13:19:31;102816.59;;;12.35;98.40
35806;BME280;21925;44.608;11.580;2022-12-20T13:24:39;102795.00;;;12.15;97.95
35806;BME280;21925;44.608;11.580;2022-12-20T13:27:29;102804.59;;;12.04;99.50
35806;BME280;21925;44.608;11.580;2022-12-20T13:29:59;102810.41;;;12.16;100.00
35806;BME280;21925;44.608;11.580;2022-12-20T13:38:04;102824.50;;;12.37;99.46
35806;BME280;21925;44.608;11.580;2022-12-20T13:40:45;102812.25;;;12.43;97.70
35806;BME280;21925;44.608;11.580;2022-12-20T13:48:29;102811.38;;;12.69;96.11
35806;BME280;21925;44.608;11.580;2022-12-20T13:50:58;102809.81;;;12.55;96.02
35806;BME280;21925;44.608;11.580;2022-12-20T13:53:26;102807.69;;;12.73;95.81
35806;BME280;21925;44.608;11.580;2022-12-20T13:55:54;102797.50;;;12.74;95.57
35806;BME280;21925;44.608;11.580;2022-12-20T13:58:32;102802.81;;;12.71;92.37
35806;BME280;21925;44.608;11.580;2022-12-20T14:01:04;102792.09;;;12.47;92.00
35806;BME280;21925;44.608;11.580;2022-12-20T14:03:32;102787.00;;;12.76;93.79
35806;BME280;21925;44.608;11.580;2022-12-20T14:06:09;102789.75;;;12.41;94.25
35806;BME280;21925;44.608;11.580;2022-12-20T14:08:45;102785.38;;;12.40;93.60
35806;BME280;21925;44.608;11.580;2022-12-20T14:11:20;102792.84;;;12.61;93.99
35806;BME280;21925;44.608;11.580;2022-12-20T14:14:01;102779.16;;;12.48;93.77
35806;BME280;21925;44.608;11.580;2022-12-20T14:16:31;102790.44;;;12.46;94.88
35806;BME280;21925;44.608;11.580;2022-12-20T14:21:25;102807.91;;;12.28;97.85
35806;BME280;21925;44.608;11.580;2022-12-20T14:23:55;102800.66;;;12.46;95.26
35806;BME280;21925;44.608;11.580;2022-12-20T14:26:29;102811.50;;;12.15;100.00
35806;BME280;21925;44.608;11.580;2022-12-20T14:29:01;102801.09;;;12.26;99.19
35806;BME280;21925;44.608;11.580;2022-12-20T14:31:42;102797.22;;;12.27;98.63
35806;BME280;21925;44.608;11.580;2022-12-20T14:36:39;102777.56;;;12.33;97.29
35806;BME280;21925;44.608;11.580;2022-12-20T14:39:28;102787.81;;;12.41;98.19
35806;BME280;21925;44.608;11.580;2022-12-20T14:44:23;102772.50;;;12.13;99.62
35806;BME280;21925;44.608;11.580;2022-12-20T14:46:55;102779.91;;;12.26;100.00
35806;BME280;21925;44.608;11.580;2022-12-20T14:49:31;102783.72;;;12.03;100.00
35806;BME280;21925;44.608;11.580;2022-12-20T14:52:38;102773.00;;;12.15;100.00
35806;BME280;21925;44.608;11.580;2022-12-20T14:55:13;102771.53;;;12.31;100.00
35806;BME280;21925;44.608;11.580;2022-12-20T14:57:48;102764.47;;;12.74;97.84